Time;durP1;ratioP1;P1;durP2;ratioP2;P2;SDS_P1;SDS_P2;PMS_P1;PMS_P2;Temp;Humidity;BMP_temperature;BMP_pressure;BME280_temperature;BME280_humidity;BME280_pressure;Samples;Min_cycle;Max_cycle;Signal;HPM_P1;HPM_P2
2022/01/26 00:06:12;;;;;;;;;;;;;;;10.13;44.76;100652.09;4457190;32;33115;-68
2022/01/26 00:08:40;;;;;;;;;;;;;;;10.21;44.51;100648.97;4456110;32;31551;-68
2022/01/26 00:11:07;;;;;;;;;;;;;;;9.89;45.41;100653.53;4457550;32;34636;-73
2022/01/26 00:13:34;;;;;;;;;;;;;;;9.76;45.93;100643.53;4459531;32;32814;-67
2022/01/26 00:16:05;;;;;;;;;;;;;;;10.05;45.03;100651.69;4459804;32;35264;-69
2022/01/26 00:18:35;;;;;;;;;;;;;;;9.72;45.87;100646.44;4457644;32;33679;-67
2022/01/26 00:21:09;;;;;;;;;;;;;;;9.88;45.24;100657.97;4465255;32;34733;-66
2022/01/26 00:24:08;;;;;;;;;;;;;;;9.91;45.52;100652.47;4455952;32;34630;-67
2022/01/26 00:29:14;;;;;;;;;;;;;;;9.74;45.74;100647.22;4463056;32;32748;-66
2022/01/26 00:40:24;;;;;;;;;;;;;;;9.46;46.54;100650.59;4465380;32;33608;-65
2022/01/26 00:42:55;;;;;;;;;;;;;;;9.61;46.21;100646.19;4465554;32;35319;-66
2022/01/26 00:45:26;;;;;;;;;;;;;;;9.73;45.81;100646.38;4465592;32;34903;-68
2022/01/26 00:47:56;;;;;;;;;;;;;;;9.82;45.61;100644.09;4464000;32;35491;-70
2022/01/26 00:50:24;;;;;;;;;;;;;;;9.93;45.22;100649.72;4456748;32;34618;-67
2022/01/26 00:52:54;;;;;;;;;;;;;;;9.52;46.33;100645.75;4466451;32;34469;-65
2022/01/26 00:55:21;;;;;;;;;;;;;;;9.02;47.44;100645.84;4465115;32;33320;-68
2022/01/26 00:57:48;;;;;;;;;;;;;;;9.54;46.52;100651.88;4466705;32;36885;-67
2022/01/26 01:00:17;;;;;;;;;;;;;;;9.78;45.59;100656.78;4461515;32;34684;-65
2022/01/26 01:02:45;;;;;;;;;;;;;;;9.67;46.03;100659.22;4462498;32;34177;-66
2022/01/26 01:05:21;;;;;;;;;;;;;;;9.91;45.11;100659.62;4462203;32;34036;-69
2022/01/26 01:07:52;;;;;;;;;;;;;;;9.37;46.66;100651.94;4467071;32;34979;-67
2022/01/26 01:10:22;;;;;;;;;;;;;;;9.49;46.00;100642.41;4465354;32;33725;-67
2022/01/26 01:12:55;;;;;;;;;;;;;;;9.47;46.29;100644.28;4461754;32;33262;-65
2022/01/26 01:15:25;;;;;;;;;;;;;;;9.70;45.44;100643.87;4462274;32;34096;-67
2022/01/26 01:18:02;;;;;;;;;;;;;;;9.41;46.19;100645.50;4463074;32;35378;-68
2022/01/26 01:31:16;;;;;;;;;;;;;;;8.17;49.73;100642.25;4463853;32;34759;-69
2022/01/26 01:33:46;;;;;;;;;;;;;;;8.44;49.02;100647.13;4461943;32;33922;-67
2022/01/26 01:36:14;;;;;;;;;;;;;;;8.02;50.33;100644.81;4465013;32;33388;-68
2022/01/26 01:38:42;;;;;;;;;;;;;;;7.93;50.70;100647.00;4461460;32;34824;-70
2022/01/26 01:41:10;;;;;;;;;;;;;;;7.97;50.62;100641.53;4456690;32;33536;-67
2022/01/26 01:43:37;;;;;;;;;;;;;;;8.32;49.65;100639.75;4464427;32;34280;-67
2022/01/26 01:46:05;;;;;;;;;;;;;;;7.47;51.79;100645.69;4463665;32;34499;-66
2022/01/26 01:48:33;;;;;;;;;;;;;;;8.08;50.50;100642.69;4464051;32;35103;-68
2022/01/26 01:51:05;;;;;;;;;;;;;;;7.77;51.01;100642.47;4464299;32;33477;-66
2022/01/26 01:53:43;;;;;;;;;;;;;;;7.69;51.48;100637.53;4461050;32;34122;-69
2022/01/26 01:56:14;;;;;;;;;;;;;;;7.75;51.33;100636.38;4465936;32;34404;-65
2022/01/26 01:58:42;;;;;;;;;;;;;;;7.58;52.26;100640.75;4457714;32;35264;-65
2022/01/26 02:01:09;;;;;;;;;;;;;;;8.51;49.29;100635.22;4461614;32;33318;-65
2022/01/26 02:03:38;;;;;;;;;;;;;;;8.67;48.69;100635.28;4465990;32;34942;-67
2022/01/26 02:06:05;;;;;;;;;;;;;;;8.23;49.97;100637.53;4462531;32;34165;-68
2022/01/26 02:08:33;;;;;;;;;;;;;;;7.83;50.57;100636.84;4463662;32;34520;-66
2022/01/26 02:11:00;;;;;;;;;;;;;;;7.74;51.47;100638.19;4462594;32;31658;-65
2022/01/26 02:13:33;;;;;;;;;;;;;;;8.39;49.34;100630.50;4463056;32;34311;-67
2022/01/26 03:02:30;;;;;;;;;;;;;;;8.21;49.68;100613.59;4464387;32;35001;-70
2022/01/26 03:05:00;;;;;;;;;;;;;;;7.91;49.72;100614.22;4464384;32;33887;-67
2022/01/26 03:07:45;;;;;;;;;;;;;;;8.27;49.52;100605.28;4465370;32;33901;-66
2022/01/26 03:10:21;;;;;;;;;;;;;;;7.84;50.24;100614.62;4464847;32;34912;-66
2022/01/26 03:12:57;;;;;;;;;;;;;;;8.23;49.25;100608.22;4461959;32;35855;-67
2022/01/26 03:15:34;;;;;;;;;;;;;;;8.23;48.98;100601.06;4464929;32;33581;-69
2022/01/26 03:20:40;;;;;;;;;;;;;;;8.19;48.98;100598.66;4464668;32;34432;-66
2022/01/26 03:28:58;;;;;;;;;;;;;;;8.57;48.46;100604.66;4466878;32;34093;-66
2022/01/26 03:34:14;;;;;;;;;;;;;;;8.72;47.58;100608.34;4466675;32;33233;-68
2022/01/26 03:36:48;;;;;;;;;;;;;;;8.98;46.85;100615.78;4467937;32;34207;-67
2022/01/26 03:39:18;;;;;;;;;;;;;;;8.99;46.81;100606.87;4461736;32;34171;-66
2022/01/26 03:41:49;;;;;;;;;;;;;;;8.85;47.18;100604.91;4466828;32;33788;-72
2022/01/26 03:44:16;;;;;;;;;;;;;;;8.89;47.03;100610.94;4466553;32;33033;-70
2022/01/26 03:46:44;;;;;;;;;;;;;;;8.75;47.21;100611.69;4467592;32;33745;-68
2022/01/26 03:49:12;;;;;;;;;;;;;;;8.79;47.36;100607.06;4466494;32;34127;-67
2022/01/26 03:51:40;;;;;;;;;;;;;;;8.93;46.76;100612.53;4467636;32;34058;-67
2022/01/26 03:54:08;;;;;;;;;;;;;;;8.71;47.65;100609.28;4466387;32;33910;-69
2022/01/26 03:56:35;;;;;;;;;;;;;;;8.61;47.51;100608.91;4466693;32;32552;-69
2022/01/26 03:59:03;;;;;;;;;;;;;;;8.26;49.00;100616.06;4465740;32;34300;-67
2022/01/26 04:01:31;;;;;;;;;;;;;;;8.92;47.13;100607.25;4467122;32;34266;-70
2022/01/26 04:03:59;;;;;;;;;;;;;;;8.84;47.40;100608.53;4466918;32;34433;-68
2022/01/26 04:06:28;;;;;;;;;;;;;;;8.60;48.23;100616.06;4467646;32;35224;-70
2022/01/26 04:08:55;;;;;;;;;;;;;;;8.92;47.01;100616.13;4467222;32;34184;-68
2022/01/26 04:13:53;;;;;;;;;;;;;;;9.10;46.26;100601.78;4465934;32;33478;-70
2022/01/26 04:16:22;;;;;;;;;;;;;;;9.18;46.17;100605.84;4466873;32;33590;-67
2022/01/26 04:18:50;;;;;;;;;;;;;;;9.43;45.28;100602.66;4468118;32;35077;-69
2022/01/26 04:23:55;;;;;;;;;;;;;;;9.28;45.60;100596.37;4466358;32;34030;-68
2022/01/26 04:26:30;;;;;;;;;;;;;;;9.07;46.40;100598.41;4465920;32;33810;-68
2022/01/26 04:29:03;;;;;;;;;;;;;;;9.13;46.36;100599.91;4466916;32;33956;-68
2022/01/26 04:31:30;;;;;;;;;;;;;;;9.20;45.93;100602.13;4466108;32;32979;-68
2022/01/26 04:33:58;;;;;;;;;;;;;;;9.04;46.24;100603.94;4465673;32;34205;-68
2022/01/26 04:36:37;;;;;;;;;;;;;;;9.35;45.69;100603.09;4465904;32;33274;-67
2022/01/26 04:39:10;;;;;;;;;;;;;;;9.27;45.81;100591.97;4465264;32;35370;-66
2022/01/26 04:41:46;;;;;;;;;;;;;;;9.60;44.70;100594.56;4466987;32;33029;-68
2022/01/26 04:44:26;;;;;;;;;;;;;;;9.40;45.07;100600.16;4466260;32;35455;-67
2022/01/26 04:46:53;;;;;;;;;;;;;;;9.42;44.93;100601.81;4466899;32;33819;-67
2022/01/26 04:49:21;;;;;;;;;;;;;;;9.32;45.38;100605.94;4465903;32;34000;-66
2022/01/26 04:51:48;;;;;;;;;;;;;;;9.46;44.80;100597.16;4466724;32;35514;-68
2022/01/26 04:54:16;;;;;;;;;;;;;;;9.55;44.53;100597.47;4465858;32;33578;-68
2022/01/26 04:56:43;;;;;;;;;;;;;;;9.39;44.91;100599.31;4464240;32;31942;-69
2022/01/26 04:59:11;;;;;;;;;;;;;;;9.52;44.50;100599.47;4463418;32;34905;-70
2022/01/26 05:01:38;;;;;;;;;;;;;;;9.60;44.38;100599.91;4464514;32;33065;-67
2022/01/26 05:04:06;;;;;;;;;;;;;;;9.66;44.22;100596.00;4465120;32;33813;-69
2022/01/26 05:06:33;;;;;;;;;;;;;;;9.67;44.23;100597.75;4466503;32;33609;-71
2022/01/26 05:09:00;;;;;;;;;;;;;;;9.60;44.46;100593.69;4464151;32;32713;-68
2022/01/26 05:11:37;;;;;;;;;;;;;;;9.67;44.16;100590.59;4465434;32;32973;-66
2022/01/26 05:14:05;;;;;;;;;;;;;;;9.73;43.97;100589.37;4464607;32;34411;-65
2022/01/26 05:16:33;;;;;;;;;;;;;;;9.44;44.84;100586.56;4464168;32;32143;-67
2022/01/26 05:19:00;;;;;;;;;;;;;;;9.60;44.34;100591.00;4466539;32;34992;-66
2022/01/26 05:21:29;;;;;;;;;;;;;;;9.62;44.17;100594.47;4465987;32;35787;-66
2022/01/26 05:23:56;;;;;;;;;;;;;;;9.62;44.23;100592.66;4463168;32;35617;-65
2022/01/26 05:26:24;;;;;;;;;;;;;;;9.58;44.33;100593.78;4457033;32;33347;-68
2022/01/26 05:28:51;;;;;;;;;;;;;;;9.66;44.17;100596.87;4464504;32;34249;-69
2022/01/26 05:31:19;;;;;;;;;;;;;;;9.73;43.81;100592.91;4463867;32;34108;-70
2022/01/26 05:33:46;;;;;;;;;;;;;;;9.69;44.10;100585.13;4464445;32;34428;-68
2022/01/26 05:36:13;;;;;;;;;;;;;;;9.50;44.50;100588.00;4465570;32;33440;-68
2022/01/26 05:38:41;;;;;;;;;;;;;;;9.69;44.17;100590.47;4457892;32;34305;-70
2022/01/26 05:41:09;;;;;;;;;;;;;;;9.62;44.30;100591.78;4466644;32;32556;-68
2022/01/26 05:43:36;;;;;;;;;;;;;;;9.56;44.58;100585.84;4465157;32;34232;-68
2022/01/26 05:46:09;;;;;;;;;;;;;;;9.77;43.90;100590.91;4463379;32;34203;-68
2022/01/26 05:48:42;;;;;;;;;;;;;;;9.45;45.04;100598.97;4463343;32;33849;-68
2022/01/26 05:51:11;;;;;;;;;;;;;;;9.57;44.73;100600.94;4464462;32;34066;-68
2022/01/26 05:53:39;;;;;;;;;;;;;;;9.70;44.33;100598.44;4465949;32;35054;-70
2022/01/26 05:56:06;;;;;;;;;;;;;;;9.73;44.20;100600.94;4464378;32;33351;-69
2022/01/26 05:58:34;;;;;;;;;;;;;;;9.62;44.52;100603.34;4464471;32;35337;-68
2022/01/26 06:01:02;;;;;;;;;;;;;;;9.77;44.01;100601.59;4466107;32;34251;-68
2022/01/26 06:03:30;;;;;;;;;;;;;;;9.74;44.25;100612.47;4465258;32;35198;-67
2022/01/26 06:05:58;;;;;;;;;;;;;;;9.73;44.23;100613.44;4464855;32;33437;-68
2022/01/26 06:08:25;;;;;;;;;;;;;;;9.84;43.97;100611.00;4463964;32;33593;-68
2022/01/26 06:10:55;;;;;;;;;;;;;;;9.70;44.25;100605.59;4461932;32;34409;-68
2022/01/26 06:13:23;;;;;;;;;;;;;;;9.62;44.54;100608.69;4464071;32;34240;-69
2022/01/26 06:15:50;;;;;;;;;;;;;;;9.61;44.43;100612.31;4464047;32;33141;-66
2022/01/26 06:18:18;;;;;;;;;;;;;;;9.49;44.76;100607.66;4463297;32;34239;-68
2022/01/26 06:20:45;;;;;;;;;;;;;;;9.63;44.57;100606.87;4463651;32;34099;-66
2022/01/26 06:23:12;;;;;;;;;;;;;;;9.77;44.18;100614.97;4464743;32;34256;-69
2022/01/26 06:25:40;;;;;;;;;;;;;;;9.18;45.99;100611.16;4464127;32;33609;-68
2022/01/26 06:28:12;;;;;;;;;;;;;;;9.25;45.63;100618.78;4466665;32;32707;-67
2022/01/26 06:30:39;;;;;;;;;;;;;;;9.66;44.98;100620.94;4461292;32;33755;-67
2022/01/26 06:33:07;;;;;;;;;;;;;;;9.18;46.11;100609.38;4465571;32;34413;-67
2022/01/26 06:35:35;;;;;;;;;;;;;;;9.05;46.71;100614.53;4465710;32;33262;-67
2022/01/26 06:38:02;;;;;;;;;;;;;;;9.36;45.89;100615.50;4465482;32;34169;-67
2022/01/26 06:40:30;;;;;;;;;;;;;;;9.29;46.29;100614.13;4465726;32;34413;-67
2022/01/26 06:43:09;;;;;;;;;;;;;;;8.57;48.28;100615.34;4465266;32;34195;-68
2022/01/26 06:45:44;;;;;;;;;;;;;;;8.92;47.19;100617.94;4466691;32;33092;-67
2022/01/26 06:50:45;;;;;;;;;;;;;;;9.85;44.71;100626.06;4465877;32;33997;-67
2022/01/26 06:53:13;;;;;;;;;;;;;;;9.36;45.88;100614.66;4464886;32;34401;-66
2022/01/26 06:55:41;;;;;;;;;;;;;;;9.51;45.59;100616.47;4468477;32;34680;-69
2022/01/26 06:58:08;;;;;;;;;;;;;;;9.51;45.50;100608.44;4470613;32;33905;-66
2022/01/26 07:00:36;;;;;;;;;;;;;;;9.55;45.54;100616.19;4470427;32;35153;-68
2022/01/26 07:03:03;;;;;;;;;;;;;;;9.47;45.57;100614.88;4469923;32;35518;-69
2022/01/26 07:05:31;;;;;;;;;;;;;;;9.76;45.00;100616.78;4469941;32;33482;-67
2022/01/26 07:07:58;;;;;;;;;;;;;;;10.23;43.85;100607.78;4468589;32;33594;-67
2022/01/26 07:10:25;;;;;;;;;;;;;;;9.82;44.56;100612.88;4468384;32;35814;-69
2022/01/26 07:12:53;;;;;;;;;;;;;;;10.10;44.14;100613.94;4468684;32;35229;-66
2022/01/26 07:23:34;;;;;;;;;;;;;;;10.49;43.24;100614.25;4468901;32;34153;-66
2022/01/26 07:26:01;;;;;;;;;;;;;;;10.07;44.42;100608.78;4467863;32;33203;-67
2022/01/26 07:28:34;;;;;;;;;;;;;;;10.25;43.82;100610.37;4468218;32;33722;-67
2022/01/26 07:31:07;;;;;;;;;;;;;;;9.66;45.52;100601.34;4473431;31;34222;-67
2022/01/26 07:33:36;;;;;;;;;;;;;;;9.39;46.14;100603.78;4478914;32;33571;-67
2022/01/26 07:36:04;;;;;;;;;;;;;;;9.22;46.50;100597.56;4475698;32;32285;-69
2022/01/26 07:38:32;;;;;;;;;;;;;;;8.51;48.04;100599.69;4473263;32;146981;-66
2022/01/26 07:40:59;;;;;;;;;;;;;;;9.10;46.65;100599.09;4469164;32;34284;-66
2022/01/26 07:43:26;;;;;;;;;;;;;;;9.13;46.75;100607.91;4466835;32;35473;-67
2022/01/26 07:45:54;;;;;;;;;;;;;;;8.69;47.69;100603.16;4467023;32;33609;-66
2022/01/26 07:48:23;;;;;;;;;;;;;;;8.52;48.28;100602.25;4467357;32;33936;-69
2022/01/26 07:50:52;;;;;;;;;;;;;;;8.08;48.54;100607.19;4468488;32;33067;-64
2022/01/26 07:53:19;;;;;;;;;;;;;;;8.85;47.41;100604.91;4467760;32;32709;-64
2022/01/26 07:55:48;;;;;;;;;;;;;;;9.37;46.13;100601.19;4469081;32;34440;-67
2022/01/26 07:58:18;;;;;;;;;;;;;;;8.63;48.04;100601.66;4469009;32;34794;-64
2022/01/26 08:00:45;;;;;;;;;;;;;;;8.35;48.64;100603.09;4469583;32;33205;-67
2022/01/26 08:03:13;;;;;;;;;;;;;;;8.21;48.80;100604.75;4469518;32;35464;-63
2022/01/26 08:05:41;;;;;;;;;;;;;;;8.70;47.73;100605.75;4470238;32;33266;-64
2022/01/26 08:08:08;;;;;;;;;;;;;;;8.45;48.66;100608.00;4465270;32;34000;-64
2022/01/26 08:10:36;;;;;;;;;;;;;;;7.53;50.44;100608.12;4467478;32;35503;-64
2022/01/26 08:13:03;;;;;;;;;;;;;;;7.79;50.33;100597.97;4466541;32;33122;-65
2022/01/26 08:15:31;;;;;;;;;;;;;;;8.10;49.21;100597.31;4465975;32;34667;-65
2022/01/26 08:17:59;;;;;;;;;;;;;;;7.79;50.04;100605.97;4466901;32;32756;-66
2022/01/26 08:20:27;;;;;;;;;;;;;;;7.97;49.91;100601.53;4467161;32;34310;-67
2022/01/26 08:22:56;;;;;;;;;;;;;;;8.24;49.21;100605.44;4466796;32;35182;-65
2022/01/26 08:25:24;;;;;;;;;;;;;;;8.17;49.21;100601.38;4465969;32;32405;-67
2022/01/26 08:28:02;;;;;;;;;;;;;;;7.83;50.17;100605.75;4466622;32;35318;-65
2022/01/26 08:30:35;;;;;;;;;;;;;;;8.36;48.65;100601.28;4465711;32;32847;-65
2022/01/26 08:33:03;;;;;;;;;;;;;;;8.66;47.99;100600.66;4466946;32;34258;-66
2022/01/26 08:35:31;;;;;;;;;;;;;;;8.49;47.91;100605.06;4466012;32;33156;-64
2022/01/26 08:37:58;;;;;;;;;;;;;;;9.31;46.64;100609.56;4467108;32;33859;-65
2022/01/26 08:40:26;;;;;;;;;;;;;;;9.02;46.63;100614.72;4466038;32;33863;-65
2022/01/26 08:42:53;;;;;;;;;;;;;;;8.14;49.29;100623.72;4475208;32;33800;-64
2022/01/26 08:45:22;;;;;;;;;;;;;;;8.39;48.07;100619.84;4466719;32;33654;-65
2022/01/26 08:47:49;;;;;;;;;;;;;;;8.03;49.34;100612.75;4466946;32;33110;-65
2022/01/26 08:50:17;;;;;;;;;;;;;;;8.27;49.27;100625.78;4466744;32;33255;-66
2022/01/26 08:52:45;;;;;;;;;;;;;;;8.81;47.91;100614.03;4466466;32;33844;-65
2022/01/26 08:55:12;;;;;;;;;;;;;;;8.71;47.69;100620.81;4464998;32;33392;-70
2022/01/26 08:57:39;;;;;;;;;;;;;;;9.37;46.16;100619.87;4467048;32;34185;-65
2022/01/26 09:00:08;;;;;;;;;;;;;;;9.14;46.77;100625.66;4465995;32;35341;-65
2022/01/26 09:02:35;;;;;;;;;;;;;;;8.97;46.90;100631.91;4466276;32;34163;-65
2022/01/26 09:05:04;;;;;;;;;;;;;;;9.67;45.48;100628.00;4466669;32;33474;-65
2022/01/26 09:07:32;;;;;;;;;;;;;;;9.78;44.69;100632.72;4465712;32;33991;-68
2022/01/26 09:10:01;;;;;;;;;;;;;;;9.29;46.20;100630.16;4465470;32;33785;-64
2022/01/26 09:12:31;;;;;;;;;;;;;;;9.71;45.28;100632.22;4465950;32;35146;-64
2022/01/26 09:15:02;;;;;;;;;;;;;;;9.76;45.21;100630.16;4466002;32;33110;-64
2022/01/26 09:17:32;;;;;;;;;;;;;;;10.13;44.54;100621.78;4469566;32;34174;-65
2022/01/26 09:20:03;;;;;;;;;;;;;;;10.17;44.29;100615.31;4481974;31;34961;-69
2022/01/26 09:22:30;;;;;;;;;;;;;;;9.33;45.67;100611.19;4468373;32;34384;-65
2022/01/26 09:24:58;;;;;;;;;;;;;;;9.24;45.79;100601.00;4464694;32;33271;-65
2022/01/26 09:27:25;;;;;;;;;;;;;;;9.13;46.30;100610.59;4467264;32;34976;-65
2022/01/26 09:29:53;;;;;;;;;;;;;;;8.74;47.36;100618.00;4465412;32;33310;-64
2022/01/26 09:32:21;;;;;;;;;;;;;;;8.78;47.42;100610.69;4466057;32;34056;-65
2022/01/26 09:34:48;;;;;;;;;;;;;;;9.21;46.57;100611.91;4466188;32;33672;-68
2022/01/26 09:37:16;;;;;;;;;;;;;;;9.46;45.75;100616.69;4466295;32;34553;-66
2022/01/26 09:39:45;;;;;;;;;;;;;;;9.59;45.45;100619.53;4466547;32;34062;-65
2022/01/26 09:42:12;;;;;;;;;;;;;;;9.13;46.19;100614.09;4466185;32;34292;-66
2022/01/26 09:44:40;;;;;;;;;;;;;;;7.68;49.75;100607.38;4465974;32;33007;-67
2022/01/26 09:47:08;;;;;;;;;;;;;;;7.60;50.22;100614.88;4467876;32;35247;-70
2022/01/26 09:49:36;;;;;;;;;;;;;;;8.08;49.06;100613.37;4473453;32;34317;-65
2022/01/26 09:52:08;;;;;;;;;;;;;;;7.35;51.09;100614.31;4478556;31;35153;-64
2022/01/26 09:54:35;;;;;;;;;;;;;;;8.00;49.95;100617.38;4466369;32;33237;-65
2022/01/26 09:57:22;;;;;;;;;;;;;;;7.69;50.43;100605.56;4466829;32;33724;-64
2022/01/26 09:59:50;;;;;;;;;;;;;;;7.35;51.64;100611.66;4465887;32;34024;-67
2022/01/26 10:02:28;;;;;;;;;;;;;;;7.33;50.82;100602.87;4466361;32;35517;-64
2022/01/26 10:04:59;;;;;;;;;;;;;;;7.93;49.88;100606.16;4464814;32;34416;-63
2022/01/26 10:15:39;;;;;;;;;;;;;;;7.47;51.29;100608.41;4463878;32;33670;-66
2022/01/26 10:18:13;;;;;;;;;;;;;;;7.83;50.19;100594.22;4465421;32;34245;-62
2022/01/26 10:20:48;;;;;;;;;;;;;;;8.13;49.35;100595.34;4465902;32;33228;-65
2022/01/26 10:23:17;;;;;;;;;;;;;;;8.56;48.29;100592.28;4465826;32;33987;-63
2022/01/26 10:25:46;;;;;;;;;;;;;;;8.35;48.52;100595.09;4465704;32;32973;-64
2022/01/26 10:28:14;;;;;;;;;;;;;;;8.35;49.22;100592.44;4465759;32;34862;-63
2022/01/26 10:30:44;;;;;;;;;;;;;;;8.26;48.55;100594.72;4464695;32;34213;-64
2022/01/26 10:33:12;;;;;;;;;;;;;;;8.38;48.71;100604.78;4466517;32;33097;-64
2022/01/26 10:35:39;;;;;;;;;;;;;;;8.72;47.34;100597.66;4465588;32;34392;-65
2022/01/26 10:38:07;;;;;;;;;;;;;;;9.00;47.10;100597.91;4465834;32;34792;-65
2022/01/26 10:40:36;;;;;;;;;;;;;;;8.62;47.94;100595.47;4464952;32;34167;-64
2022/01/26 10:43:10;;;;;;;;;;;;;;;9.24;46.28;100592.13;4465177;32;34587;-68
2022/01/26 10:46:05;;;;;;;;;;;;;;;9.47;45.74;100588.16;4465712;32;33141;-64
2022/01/26 10:48:44;;;;;;;;;;;;;;;8.65;48.12;100591.78;4465586;32;35181;-66
2022/01/26 10:53:48;;;;;;;;;;;;;;;8.93;47.06;100588.50;4462345;32;33834;-67
2022/01/26 10:56:16;;;;;;;;;;;;;;;8.70;47.17;100596.87;4469378;32;32694;-68
2022/01/26 10:58:43;;;;;;;;;;;;;;;8.60;47.92;100584.03;4465569;32;33972;-68
2022/01/26 11:01:11;;;;;;;;;;;;;;;8.41;48.07;100580.63;4465251;32;34367;-68
2022/01/26 11:03:39;;;;;;;;;;;;;;;8.99;46.74;100580.16;4466001;32;34596;-68
2022/01/26 11:06:06;;;;;;;;;;;;;;;8.96;47.04;100580.31;4466157;32;33426;-67
2022/01/26 11:08:38;;;;;;;;;;;;;;;8.81;46.88;100579.34;4463378;32;34824;-68
2022/01/26 11:11:06;;;;;;;;;;;;;;;8.49;47.75;100574.88;4463423;32;34425;-68
2022/01/26 11:13:34;;;;;;;;;;;;;;;8.09;48.54;100574.22;4462585;32;33191;-67
2022/01/26 11:16:08;;;;;;;;;;;;;;;9.03;46.53;100570.16;4465772;32;34558;-69
2022/01/26 11:18:45;;;;;;;;;;;;;;;8.71;47.28;100572.78;4465165;32;34213;-71
2022/01/26 11:21:24;;;;;;;;;;;;;;;9.06;46.56;100565.50;4466001;32;35177;-68
2022/01/26 11:24:02;;;;;;;;;;;;;;;8.68;47.01;100572.09;4458861;32;34551;-68
2022/01/26 11:26:29;;;;;;;;;;;;;;;8.65;47.27;100574.91;4462326;32;32471;-68
2022/01/26 11:28:57;;;;;;;;;;;;;;;8.12;48.59;100577.62;4456772;32;33950;-69
2022/01/26 11:31:25;;;;;;;;;;;;;;;9.14;46.60;100578.44;4456540;32;33938;-69
2022/01/26 11:34:14;;;;;;;;;;;;;;;9.43;45.86;100571.44;4463440;32;35019;-68
2022/01/26 11:36:42;;;;;;;;;;;;;;;9.94;44.23;100569.37;4463301;32;33262;-66
2022/01/26 11:42:13;;;;;;;;;;;;;;;9.90;44.42;100567.84;4463795;32;33117;-67
2022/01/26 11:42:27;;;;;;;;;;;;;;;9.97;44.00;100565.66;4465742;32;32893;-67
2022/01/26 11:45:08;;;;;;;;;;;;;;;10.69;42.83;100561.34;4465183;32;35444;-67
2022/01/26 11:47:37;;;;;;;;;;;;;;;10.83;42.82;100560.47;4467468;32;33675;-70
2022/01/26 11:50:14;;;;;;;;;;;;;;;11.36;41.28;100564.19;4464119;32;34085;-69
2022/01/26 11:52:46;;;;;;;;;;;;;;;11.57;40.27;100565.50;4467746;32;34424;-67
2022/01/26 11:55:25;;;;;;;;;;;;;;;11.34;41.05;100563.47;4468093;32;34632;-67
2022/01/26 11:57:54;;;;;;;;;;;;;;;11.16;41.29;100565.50;4469099;32;33586;-66
2022/01/26 12:01:09;;;;;;;;;;;;;;;12.15;39.13;100555.37;4474596;32;33648;-68
2022/01/26 12:03:44;;;;;;;;;;;;;;;12.14;38.99;100556.34;4435359;32;36996;-66
2022/01/26 12:06:20;;;;;;;;;;;;;;;12.02;39.05;100551.81;4469025;32;34037;-68
2022/01/26 12:08:48;;;;;;;;;;;;;;;11.54;40.06;100556.78;4467669;32;33432;-66
2022/01/26 12:11:16;;;;;;;;;;;;;;;11.88;39.43;100537.53;4465713;32;34094;-68
2022/01/26 12:13:45;;;;;;;;;;;;;;;12.83;37.92;100538.94;4467384;32;35480;-67
2022/01/26 12:16:23;;;;;;;;;;;;;;;13.32;36.28;100531.84;4465116;32;35839;-65
2022/01/26 12:33:48;;;;;;;;;;;;;;;13.12;36.57;100529.75;4463326;32;34208;-65
2022/01/26 12:36:29;;;;;;;;;;;;;;;12.87;36.72;100512.72;4462908;32;34904;-66
2022/01/26 12:38:57;;;;;;;;;;;;;;;11.98;39.15;100520.81;4463315;32;36152;-65
2022/01/26 12:41:34;;;;;;;;;;;;;;;12.15;38.64;100517.81;4464727;32;33163;-65
2022/01/26 12:44:08;;;;;;;;;;;;;;;11.63;39.63;100503.41;4461130;32;32978;-69
2022/01/26 12:46:36;;;;;;;;;;;;;;;12.37;38.00;100514.50;4466988;32;34459;-70
2022/01/26 12:49:08;;;;;;;;;;;;;;;12.11;38.14;100503.75;4460927;32;33932;-68
2022/01/26 12:51:46;;;;;;;;;;;;;;;11.62;39.71;100511.53;4461566;32;34287;-67
2022/01/26 12:54:13;;;;;;;;;;;;;;;12.19;38.27;100502.34;4458429;32;34925;-69
2022/01/26 12:56:40;;;;;;;;;;;;;;;12.15;39.09;100504.41;4462696;32;34074;-67
2022/01/26 12:59:09;;;;;;;;;;;;;;;12.45;37.69;100496.00;4459799;32;34440;-70
2022/01/26 13:01:36;;;;;;;;;;;;;;;12.74;36.95;100501.13;4461779;32;34288;-68
2022/01/26 13:04:05;;;;;;;;;;;;;;;12.01;38.08;100496.47;4465080;32;33914;-69
2022/01/26 13:06:37;;;;;;;;;;;;;;;11.85;38.58;100508.22;4462462;32;34015;-68
2022/01/26 13:09:18;;;;;;;;;;;;;;;11.50;39.02;100513.25;4467423;32;34373;-69
2022/01/26 13:11:46;;;;;;;;;;;;;;;11.59;38.95;100503.75;4464925;32;33350;-69
2022/01/26 13:14:23;;;;;;;;;;;;;;;11.51;39.32;100514.09;4463288;32;35326;-68
2022/01/26 13:17:13;;;;;;;;;;;;;;;11.58;39.32;100515.41;4463790;32;34381;-68
2022/01/26 13:22:41;;;;;;;;;;;;;;;11.86;38.74;100503.72;4458855;32;34900;-70
2022/01/26 13:30:46;;;;;;;;;;;;;;;12.41;37.52;100496.34;4460640;32;34632;-70
2022/01/26 13:41:37;;;;;;;;;;;;;;;11.79;38.86;100500.56;4465799;32;35079;-69
2022/01/26 13:47:07;;;;;;;;;;;;;;;12.79;36.97;100497.16;4461641;32;34507;-69
2022/01/26 13:58:02;;;;;;;;;;;;;;;12.62;37.58;100492.16;4457673;32;35180;-70
2022/01/26 14:00:14;;;;;;;;;;;;;;;12.80;37.03;100503.38;4458991;32;34415;-69
2022/01/26 14:02:42;;;;;;;;;;;;;;;12.84;36.73;100502.22;4459878;32;34000;-70
2022/01/26 14:05:10;;;;;;;;;;;;;;;11.32;39.39;100499.22;4462563;32;33523;-72
2022/01/26 14:07:38;;;;;;;;;;;;;;;11.99;38.17;100499.22;4456933;32;33821;-72
2022/01/26 14:10:06;;;;;;;;;;;;;;;11.42;40.01;100496.78;4463696;32;34713;-70
2022/01/26 14:12:38;;;;;;;;;;;;;;;11.80;38.89;100501.41;4465496;32;35197;-71
2022/01/26 14:15:08;;;;;;;;;;;;;;;11.39;39.54;100503.22;4462938;32;31546;-71
2022/01/26 14:20:43;;;;;;;;;;;;;;;11.85;38.48;100496.62;4463826;32;34431;-70
2022/01/26 14:23:41;;;;;;;;;;;;;;;11.59;39.79;100503.75;4460659;32;34550;-70
2022/01/26 14:26:10;;;;;;;;;;;;;;;11.17;39.94;100505.56;4460124;32;34554;-70
2022/01/26 14:28:37;;;;;;;;;;;;;;;10.63;41.50;100492.97;4460472;32;34284;-70
2022/01/26 14:31:22;;;;;;;;;;;;;;;11.23;39.48;100490.94;4457033;32;34244;-69
2022/01/26 14:56:15;;;;;;;;;;;;;;;11.23;39.95;100499.81;4458055;32;35510;-69
2022/01/26 15:50:47;;;;;;;;;;;;;;;11.08;39.33;100522.28;4461295;32;32678;-69
2022/01/26 15:59:04;;;;;;;;;;;;;;;12.10;37.17;100528.00;4466177;32;34050;-69
2022/01/26 16:04:43;;;;;;;;;;;;;;;13.00;35.68;100534.19;4464760;32;34418;-69
2022/01/26 16:07:15;;;;;;;;;;;;;;;12.92;36.01;100540.12;4463372;32;35294;-69
2022/01/26 16:12:43;;;;;;;;;;;;;;;13.17;35.51;100541.91;4456755;32;34270;-69
2022/01/26 16:21:02;;;;;;;;;;;;;;;13.36;35.26;100552.19;4465719;32;33934;-69
2022/01/26 18:16:47;;;;;;;;;;;;;;;13.32;35.00;100564.12;4458431;32;34629;-70
2022/01/26 18:33:11;;;;;;;;;;;;;;;13.47;34.77;100544.19;4459265;32;34293;-70
2022/01/26 18:46:48;;;;;;;;;;;;;;;13.78;33.75;100532.97;4463465;32;34163;-69
2022/01/26 18:49:30;;;;;;;;;;;;;;;13.93;33.44;100524.59;4460821;32;33658;-70
2022/01/26 18:51:58;;;;;;;;;;;;;;;13.70;34.04;100520.94;4461017;32;34458;-70
2022/01/26 18:54:28;;;;;;;;;;;;;;;13.85;33.60;100510.00;4463096;32;33138;-71
2022/01/26 18:56:56;;;;;;;;;;;;;;;13.62;34.11;100501.84;4461419;32;33547;-70
2022/01/26 18:59:24;;;;;;;;;;;;;;;13.72;33.81;100496.62;4462845;32;33831;-70
2022/01/26 19:01:52;;;;;;;;;;;;;;;13.97;33.25;100503.69;4459940;32;34986;-70
2022/01/26 19:04:34;;;;;;;;;;;;;;;14.14;32.64;100505.91;4463491;32;34647;-70
2022/01/26 19:07:02;;;;;;;;;;;;;;;14.04;33.02;100504.91;4465281;32;34822;-70
2022/01/26 19:09:33;;;;;;;;;;;;;;;14.04;32.80;100518.37;4456420;32;33263;-70
2022/01/26 19:12:02;;;;;;;;;;;;;;;14.11;32.38;100508.84;4464520;32;33830;-70
2022/01/26 19:14:35;;;;;;;;;;;;;;;14.16;32.29;100508.50;4461700;32;34083;-71
2022/01/26 19:17:12;;;;;;;;;;;;;;;14.14;32.42;100511.31;4457130;32;34442;-70
2022/01/26 19:25:08;;;;;;;;;;;;;;;13.96;32.70;100515.41;4453598;32;34423;-70
2022/01/26 19:28:04;;;;;;;;;;;;;;;13.49;33.84;100504.59;4460838;32;34219;-70
2022/01/26 19:42:53;;;;;;;;;;;;;;;14.11;32.50;100511.53;4463441;32;33862;-70
2022/01/26 19:52:14;;;;;;;;;;;;;;;13.95;32.57;100527.16;4460587;32;33069;-70